Time;durP1;ratioP1;P1;durP2;ratioP2;P2;SDS_P1;SDS_P2;PMS_P1;PMS_P2;Temp;Humidity;BMP_temperature;BMP_pressure;BME280_temperature;BME280_humidity;BME280_pressure;Samples;Min_cycle;Max_cycle;Signal;HPM_P1;HPM_P2
2020/12/09 00:00:17;;;;;;;45.95;21.15;;;;;;;-0.13;100.00;94863.41;1028565;28;20015;-73
2020/12/09 00:00:47;;;;;;;48.50;21.92;;;;;;;-0.21;100.00;94864.06;1032380;28;20014;-73
2020/12/09 00:01:18;;;;;;;45.33;20.73;;;;;;;-0.24;100.00;94857.38;1032320;28;20076;-73
2020/12/09 00:01:49;;;;;;;43.33;20.95;;;;;;;-0.18;100.00;94865.59;1040551;28;20449;-73
2020/12/09 00:02:19;;;;;;;47.28;20.70;;;;;;;-0.20;100.00;94857.91;1044705;28;20013;-73
2020/12/09 00:02:50;;;;;;;48.28;21.23;;;;;;;-0.14;100.00;94862.59;1040371;28;20012;-73
2020/12/09 00:03:21;;;;;;;48.50;21.63;;;;;;;-0.11;100.00;94856.25;1036323;28;20010;-73
2020/12/09 00:03:52;;;;;;;48.30;21.48;;;;;;;-0.15;100.00;94862.72;1048724;28;20444;-73
2020/12/09 00:04:23;;;;;;;50.13;23.58;;;;;;;-0.15;100.00;94858.31;1040708;28;20481;-73
2020/12/09 00:04:53;;;;;;;53.58;23.25;;;;;;;-0.13;100.00;94859.00;1040491;28;20014;-73
2020/12/09 00:05:24;;;;;;;48.08;21.25;;;;;;;-0.12;100.00;94857.22;1044583;28;20052;-73
2020/12/09 00:05:55;;;;;;;47.97;22.15;;;;;;;-0.17;100.00;94849.81;1032410;28;20026;-73
2020/12/09 00:06:26;;;;;;;44.85;20.83;;;;;;;-0.14;100.00;94856.53;1032492;28;20022;-73
2020/12/09 00:06:57;;;;;;;50.63;21.90;;;;;;;-0.13;100.00;94847.75;1044681;28;20020;-73
2020/12/09 00:07:28;;;;;;;50.40;22.30;;;;;;;-0.13;100.00;94866.84;1032430;28;20022;-72
2020/12/09 00:07:59;;;;;;;52.15;22.33;;;;;;;-0.15;100.00;94855.72;1044572;28;20017;-73
2020/12/09 00:08:29;;;;;;;51.40;22.05;;;;;;;-0.19;100.00;94867.41;1044690;28;20021;-73
2020/12/09 00:09:00;;;;;;;50.05;22.40;;;;;;;-0.28;100.00;94844.72;1032328;28;20015;-73
2020/12/09 00:09:31;;;;;;;50.38;22.13;;;;;;;-0.18;100.00;94860.38;1036650;28;20017;-73
2020/12/09 00:10:04;;;;;;;46.70;21.60;;;;;;;-0.20;100.00;94860.53;1040863;28;20036;-73
2020/12/09 00:10:35;;;;;;;48.75;22.48;;;;;;;-0.28;100.00;94856.00;1037060;28;20017;-73
2020/12/09 00:11:07;;;;;;;51.88;21.38;;;;;;;-0.24;100.00;94866.97;1044711;28;20021;-72
2020/12/09 00:11:38;;;;;;;54.45;22.23;;;;;;;-0.28;100.00;94868.19;1044615;28;20049;-73
2020/12/09 00:12:09;;;;;;;47.55;21.05;;;;;;;-0.28;100.00;94863.81;1032346;28;20531;-72
2020/12/09 00:12:40;;;;;;;46.58;21.58;;;;;;;-0.26;100.00;94866.28;1028257;28;20019;-73
2020/12/09 00:13:11;;;;;;;49.40;22.58;;;;;;;-0.25;100.00;94866.13;1044548;28;20076;-72
2020/12/09 00:13:43;;;;;;;44.75;20.35;;;;;;;-0.33;100.00;94854.75;1044550;28;20028;-72
2020/12/09 00:14:13;;;;;;;49.88;20.77;;;;;;;-0.28;100.00;94876.03;1036511;28;20110;-72
2020/12/09 00:14:44;;;;;;;52.58;22.98;;;;;;;-0.41;100.00;94861.47;1036385;28;20489;-73
2020/12/09 00:15:15;;;;;;;49.78;20.73;;;;;;;-0.30;100.00;94870.94;1040590;28;20028;-72
2020/12/09 00:15:46;;;;;;;44.28;20.45;;;;;;;-0.29;100.00;94871.78;1040644;28;20139;-72
2020/12/09 00:16:17;;;;;;;46.90;21.35;;;;;;;-0.27;100.00;94878.50;1044668;28;20210;-72
2020/12/09 00:16:48;;;;;;;49.58;21.23;;;;;;;-0.23;100.00;94877.28;1036505;28;20493;-73
2020/12/09 00:17:22;;;;;;;52.05;22.52;;;;;;;-0.23;100.00;94877.28;1040442;28;20513;-73
2020/12/09 00:17:53;;;;;;;50.35;21.40;;;;;;;-0.22;100.00;94871.09;1044581;28;20393;-73
2020/12/09 00:18:24;;;;;;;44.28;20.83;;;;;;;-0.17;100.00;94872.44;1044542;28;20021;-72
2020/12/09 00:18:56;;;;;;;45.83;21.27;;;;;;;-0.17;100.00;94880.28;1032201;28;20030;-73
2020/12/09 00:19:27;;;;;;;48.88;20.45;;;;;;;-0.16;100.00;94881.94;1036525;28;20041;-72
2020/12/09 00:19:58;;;;;;;45.25;20.50;;;;;;;-0.14;100.00;94870.41;1036304;28;20025;-73
2020/12/09 00:20:28;;;;;;;48.20;22.73;;;;;;;-0.16;100.00;94872.31;1032447;28;20018;-73
2020/12/09 00:20:59;;;;;;;50.22;22.77;;;;;;;-0.18;100.00;94865.59;1032136;28;20026;-73
2020/12/09 00:21:31;;;;;;;48.75;21.83;;;;;;;-0.20;100.00;94871.78;1048708;28;20016;-73
2020/12/09 00:22:02;;;;;;;49.15;20.33;;;;;;;-0.18;100.00;94871.63;1044517;28;20094;-73
2020/12/09 00:22:34;;;;;;;47.20;21.30;;;;;;;-0.14;100.00;94862.59;1040465;28;20025;-73
2020/12/09 00:23:05;;;;;;;46.63;20.95;;;;;;;-0.12;100.00;94872.88;1040376;28;20421;-72
2020/12/09 00:23:37;;;;;;;43.75;20.58;;;;;;;-0.13;100.00;94864.22;1036395;28;20022;-73
2020/12/09 00:24:08;;;;;;;45.25;20.02;;;;;;;-0.08;100.00;94872.47;1036359;28;20028;-73
2020/12/09 00:24:39;;;;;;;46.75;21.08;;;;;;;-0.07;100.00;94879.34;1048734;28;20377;-73
2020/12/09 00:25:10;;;;;;;43.38;20.67;;;;;;;-0.25;100.00;94860.09;1036347;28;20502;-73
2020/12/09 00:25:41;;;;;;;44.83;20.65;;;;;;;-0.13;100.00;94879.88;1044585;28;20029;-73
2020/12/09 00:26:15;;;;;;;44.25;19.48;;;;;;;-0.12;100.00;94880.69;1044609;28;20112;-73
2020/12/09 00:26:46;;;;;;;46.55;20.08;;;;;;;-0.10;100.00;94878.78;1036261;28;20112;-73
2020/12/09 00:27:17;;;;;;;44.85;20.50;;;;;;;-0.06;100.00;94880.16;1032278;28;20018;-73
2020/12/09 00:27:48;;;;;;;48.53;20.83;;;;;;;-0.06;100.00;94882.78;1036294;28;20025;-72
2020/12/09 00:28:18;;;;;;;45.20;20.92;;;;;;;-0.13;100.00;94873.84;1040564;28;20025;-73
2020/12/09 00:28:49;;;;;;;45.38;20.88;;;;;;;-0.11;100.00;94871.91;1040395;28;20078;-73
2020/12/09 00:29:20;;;;;;;45.65;21.08;;;;;;;-0.07;100.00;94883.72;1032288;28;20105;-73
2020/12/09 00:29:52;;;;;;;47.30;20.98;;;;;;;-0.10;100.00;94878.78;1036407;28;20029;-72
2020/12/09 00:30:23;;;;;;;46.58;22.30;;;;;;;-0.09;100.00;94880.44;1032298;28;20022;-73
2020/12/09 00:30:53;;;;;;;46.45;20.33;;;;;;;-0.17;100.00;94868.06;1036325;28;20029;-73
2020/12/09 00:31:27;;;;;;;41.08;19.70;;;;;;;-0.09;100.00;94881.25;1036343;28;20026;-72
2020/12/09 00:32:02;;;;;;;47.22;20.23;;;;;;;-0.08;100.00;94880.28;1032154;28;20034;-72
2020/12/09 00:32:34;;;;;;;49.33;20.45;;;;;;;-0.05;100.00;94884.44;1040488;28;20024;-73
2020/12/09 00:33:05;;;;;;;43.25;19.10;;;;;;;-0.08;100.00;94882.91;1040388;28;20596;-73
2020/12/09 00:33:36;;;;;;;42.83;20.27;;;;;;;-0.11;100.00;94882.34;1036392;28;20116;-72
2020/12/09 00:34:06;;;;;;;44.83;20.48;;;;;;;-0.08;100.00;94887.31;1036467;28;20026;-73
2020/12/09 00:34:37;;;;;;;46.45;21.20;;;;;;;-0.07;100.00;94886.31;1032481;28;20014;-73
2020/12/09 00:35:08;;;;;;;46.47;20.42;;;;;;;-0.07;100.00;94881.94;1040476;28;20025;-73
2020/12/09 00:35:39;;;;;;;46.38;20.02;;;;;;;-0.07;100.00;94888.94;1044850;28;20025;-73
2020/12/09 00:36:09;;;;;;;42.60;19.92;;;;;;;-0.07;100.00;94896.75;1032489;28;20125;-73
2020/12/09 00:36:41;;;;;;;44.55;19.90;;;;;;;-0.08;100.00;94895.13;1032555;28;20473;-73
2020/12/09 00:37:12;;;;;;;42.30;19.50;;;;;;;-0.17;100.00;94873.28;1044719;28;20025;-73
2020/12/09 00:37:43;;;;;;;46.00;20.75;;;;;;;-0.11;100.00;94898.00;1040896;28;20033;-73
2020/12/09 00:38:13;;;;;;;45.08;20.95;;;;;;;-0.05;100.00;94894.88;1036587;28;20033;-73
2020/12/09 00:38:45;;;;;;;46.92;20.95;;;;;;;-0.06;100.00;94893.22;1028819;28;20415;-74
2020/12/09 00:39:15;;;;;;;45.45;21.23;;;;;;;-0.08;100.00;94888.13;1038517;28;20117;-73
2020/12/09 00:39:46;;;;;;;44.67;20.38;;;;;;;-0.19;100.00;94867.41;1046792;28;20041;-73
2020/12/09 00:40:17;;;;;;;44.45;20.05;;;;;;;-0.04;100.00;94891.28;1042657;28;20021;-73
2020/12/09 00:40:47;;;;;;;48.53;21.80;;;;;;;-0.16;100.00;94874.13;1038372;28;20116;-73
2020/12/09 00:41:21;;;;;;;48.35;21.52;;;;;;;-0.07;100.00;94894.16;1034020;28;20024;-73
2020/12/09 00:41:51;;;;;;;42.45;19.83;;;;;;;-0.04;100.00;94886.88;1042183;28;20025;-73
2020/12/09 00:42:22;;;;;;;45.95;20.75;;;;;;;-0.04;100.00;94889.47;1046398;28;20032;-72
2020/12/09 00:42:53;;;;;;;45.85;20.50;;;;;;;-0.01;100.00;94893.63;1038396;28;20028;-73
2020/12/09 00:43:24;;;;;;;43.13;20.15;;;;;;;-0.06;100.00;94886.19;1042190;28;20074;-72
2020/12/09 00:43:56;;;;;;;48.13;21.73;;;;;;;-0.05;100.00;94890.47;1038157;28;20026;-73
2020/12/09 00:44:26;;;;;;;52.95;22.20;;;;;;;-0.08;100.00;94893.34;1038231;28;20028;-73
2020/12/09 00:44:57;;;;;;;47.80;21.15;;;;;;;-0.03;100.00;94900.78;1042449;28;20032;-73
2020/12/09 00:45:29;;;;;;;52.47;21.58;;;;;;;-0.02;100.00;94892.81;1046235;28;20437;-72
2020/12/09 00:45:59;;;;;;;46.70;21.55;;;;;;;-0.01;100.00;94891.00;1046297;28;20045;-73
2020/12/09 00:46:32;;;;;;;48.63;21.50;;;;;;;-0.03;100.00;94898.16;1042198;28;20032;-73
2020/12/09 00:47:03;;;;;;;49.65;21.58;;;;;;;-0.04;100.00;94889.47;1033667;28;20571;-73
2020/12/09 00:47:34;;;;;;;45.47;20.20;;;;;;;-0.02;100.00;94890.19;1042069;28;20148;-73
2020/12/09 00:48:05;;;;;;;49.45;20.42;;;;;;;-0.05;100.00;94897.47;1037964;28;20069;-73
2020/12/09 00:48:35;;;;;;;50.22;22.60;;;;;;;-0.06;100.00;94890.59;1030060;28;20533;-73
2020/12/09 00:49:06;;;;;;;49.88;21.52;;;;;;;-0.14;100.00;94891.28;1046052;28;20123;-73
2020/12/09 00:50:49;;;;;;;48.85;21.08;;;;;;;-0.31;100.00;94856.25;1046196;28;20025;-73
2020/12/09 00:51:21;;;;;;;53.55;21.83;;;;;;;-0.13;100.00;94885.09;1030032;28;20018;-73
2020/12/09 00:51:52;;;;;;;50.17;21.77;;;;;;;-0.16;100.00;94889.75;1028909;28;20078;-73
2020/12/09 00:52:24;;;;;;;53.78;22.45;;;;;;;-0.25;100.00;94873.97;1036413;28;20446;-73
2020/12/09 00:52:55;;;;;;;55.22;23.08;;;;;;;-0.18;100.00;94883.88;1028281;28;20019;-73
2020/12/09 00:53:26;;;;;;;48.70;20.60;;;;;;;-0.17;100.00;94894.16;1036227;28;20026;-72
2020/12/09 00:54:00;;;;;;;49.75;22.08;;;;;;;-0.17;100.00;94888.09;1048636;28;20016;-72
2020/12/09 00:54:31;;;;;;;48.53;21.38;;;;;;;-0.17;100.00;94893.31;1040379;28;20028;-73
2020/12/09 00:55:02;;;;;;;50.05;22.35;;;;;;;-0.17;100.00;94882.88;1040307;28;20017;-73
2020/12/09 00:55:33;;;;;;;49.08;21.75;;;;;;;-0.25;100.00;94871.34;1040511;28;20405;-73
2020/12/09 00:56:06;;;;;;;50.50;21.92;;;;;;;-0.19;100.00;94893.50;1028226;28;20077;-73
2020/12/09 00:56:47;;;;;;;44.05;20.42;;;;;;;-0.15;100.00;94887.03;1036376;28;20493;-73
2020/12/09 00:57:22;;;;;;;50.97;21.38;;;;;;;-0.17;100.00;94888.09;1044446;28;20435;-73
2020/12/09 00:57:53;;;;;;;49.97;20.90;;;;;;;-0.20;100.00;94892.63;1048678;28;20107;-73
2020/12/09 00:58:24;;;;;;;50.35;20.95;;;;;;;-0.20;100.00;94889.22;1036195;28;20394;-73
2020/12/09 00:58:55;;;;;;;48.50;22.92;;;;;;;-0.17;100.00;94891.56;1036062;28;20037;-74
2020/12/09 00:59:25;;;;;;;49.50;20.70;;;;;;;-0.24;100.00;94880.03;1048855;28;20021;-72
2020/12/09 00:59:56;;;;;;;48.75;21.58;;;;;;;-0.23;100.00;94881.66;1040165;28;20025;-73
2020/12/09 01:00:27;;;;;;;51.22;21.13;;;;;;;-0.17;100.00;94893.31;1036214;28;20533;-73
2020/12/09 01:00:58;;;;;;;51.92;21.75;;;;;;;-0.16;100.00;94894.97;1036031;28;20505;-73
2020/12/09 01:01:29;;;;;;;50.72;20.95;;;;;;;-0.16;100.00;94894.97;1040278;28;20478;-73
2020/12/09 01:01:59;;;;;;;54.83;22.35;;;;;;;-0.16;100.00;94894.97;1036380;28;20018;-73
2020/12/09 01:02:30;;;;;;;51.67;21.88;;;;;;;-0.17;100.00;94894.16;1040264;28;20021;-73
2020/12/09 01:03:01;;;;;;;51.85;21.60;;;;;;;-0.22;100.00;94889.34;1036142;28;20032;-73
2020/12/09 01:03:32;;;;;;;48.72;20.95;;;;;;;-0.12;100.00;94896.34;1040241;28;20033;-73
2020/12/09 01:04:04;;;;;;;48.75;22.42;;;;;;;-0.15;100.00;94901.88;1044441;28;20120;-73
2020/12/09 01:04:35;;;;;;;46.13;21.33;;;;;;;-0.16;100.00;94897.59;1036212;28;20022;-73
2020/12/09 01:05:07;;;;;;;50.08;22.20;;;;;;;-0.11;100.00;94898.81;1036085;28;20033;-73
2020/12/09 01:05:38;;;;;;;49.00;21.73;;;;;;;-0.11;100.00;94903.22;1040253;28;20014;-73
2020/12/09 01:06:09;;;;;;;51.97;21.98;;;;;;;-0.11;100.00;94891.00;1032324;28;20022;-73
2020/12/09 01:06:40;;;;;;;51.70;21.58;;;;;;;-0.07;100.00;94899.38;1028163;28;20114;-74
2020/12/09 01:07:11;;;;;;;49.20;22.02;;;;;;;-0.13;100.00;94903.34;1036051;28;20060;-73
2020/12/09 01:07:42;;;;;;;53.30;23.88;;;;;;;-0.10;100.00;94900.47;1028122;28;20025;-73
2020/12/09 01:08:14;;;;;;;49.63;22.50;;;;;;;-0.14;100.00;94896.50;1036234;28;20068;-72
2020/12/09 01:08:44;;;;;;;54.13;23.73;;;;;;;-0.17;100.00;94891.56;1032179;28;20050;-73
2020/12/09 01:09:15;;;;;;;51.42;21.90;;;;;;;-0.14;100.00;94893.91;1036130;28;20017;-73
2020/12/09 01:09:46;;;;;;;50.88;22.80;;;;;;;-0.07;100.00;94899.38;1044466;28;20398;-72
2020/12/09 01:10:17;;;;;;;46.55;21.60;;;;;;;-0.03;100.00;94901.59;1032168;28;20026;-73
2020/12/09 01:10:48;;;;;;;54.10;22.95;;;;;;;-0.08;100.00;94909.00;1031993;28;20022;-73
2020/12/09 01:11:21;;;;;;;53.60;22.70;;;;;;;-0.08;100.00;94908.19;1040006;28;20017;-73
2020/12/09 01:11:52;;;;;;;51.67;22.48;;;;;;;-0.04;100.00;94910.34;1039833;28;20033;-72
2020/12/09 01:12:23;;;;;;;54.55;23.50;;;;;;;0.00;100.00;94905.72;1032075;28;20033;-73
2020/12/09 01:12:53;;;;;;;48.90;21.90;;;;;;;0.05;100.00;94913.94;1036121;28;20021;-73
2020/12/09 01:13:24;;;;;;;48.13;21.90;;;;;;;-0.15;100.00;94881.00;1032102;28;20090;-73
2020/12/09 01:13:55;;;;;;;51.08;22.02;;;;;;;-0.01;100.00;94912.69;1032165;28;20026;-73
2020/12/09 01:14:25;;;;;;;50.83;22.05;;;;;;;-0.04;100.00;94915.59;1040322;28;20018;-73
2020/12/09 01:14:56;;;;;;;45.75;20.73;;;;;;;-0.05;100.00;94919.16;1036148;28;20482;-73
2020/12/09 01:15:27;;;;;;;50.65;22.30;;;;;;;-0.02;100.00;94918.06;1032147;28;20073;-73
2020/12/09 01:15:58;;;;;;;51.38;21.70;;;;;;;-0.02;100.00;94916.28;1040086;28;20108;-73
2020/12/09 01:16:28;;;;;;;49.20;21.60;;;;;;;-0.02;100.00;94916.28;1032093;28;20510;-73
2020/12/09 01:17:00;;;;;;;51.92;22.35;;;;;;;-0.01;100.00;94914.50;1036236;28;20463;-74
2020/12/09 01:17:31;;;;;;;52.70;23.35;;;;;;;-0.06;100.00;94901.84;1036255;28;20026;-73
2020/12/09 01:18:01;;;;;;;50.30;21.85;;;;;;;0.08;100.00;94928.50;1040176;28;20367;-73
2020/12/09 01:18:33;;;;;;;48.28;22.27;;;;;;;-0.15;100.00;94902.69;1036104;28;20045;-73
2020/12/09 01:19:04;;;;;;;47.28;21.60;;;;;;;0.08;100.00;94924.09;1028006;28;20054;-74
2020/12/09 01:19:34;;;;;;;47.83;21.15;;;;;;;0.07;100.00;94930.31;1036138;28;20430;-73
2020/12/09 01:20:05;;;;;;;48.75;21.92;;;;;;;0.05;100.00;94932.19;1028086;28;20054;-73
2020/12/09 01:20:36;;;;;;;49.17;22.92;;;;;;;-0.01;100.00;94930.16;1032051;28;20025;-73
2020/12/09 01:21:07;;;;;;;52.10;21.23;;;;;;;0.01;100.00;94936.06;1036090;28;20046;-73
2020/12/09 01:21:38;;;;;;;51.95;22.25;;;;;;;0.01;100.00;94925.63;1036187;28;20018;-73
2020/12/09 01:22:09;;;;;;;49.85;22.85;;;;;;;-0.03;100.00;94930.28;1036203;28;20029;-73
2020/12/09 01:22:40;;;;;;;49.50;21.80;;;;;;;0.03;100.00;94939.34;1036204;28;20080;-73
2020/12/09 01:24:11;;;;;;;47.38;19.45;;;;;;;0.07;100.00;94935.53;1028544;28;20042;-73
2020/12/09 01:24:42;;;;;;;51.88;21.73;;;;;;;0.13;100.00;94937.56;1028335;28;20123;-73
2020/12/09 01:25:13;;;;;;;43.28;19.52;;;;;;;0.05;100.00;94940.03;1028107;28;20508;-73
2020/12/09 01:25:44;;;;;;;45.75;20.73;;;;;;;0.00;100.00;94924.00;1032039;28;20033;-73
2020/12/09 01:26:15;;;;;;;45.65;19.85;;;;;;;0.08;100.00;94950.19;1016312;29;20032;-72
2020/12/09 01:26:47;;;;;;;50.75;21.45;;;;;;;0.06;100.00;94946.91;1024147;29;20525;-73
2020/12/09 01:27:23;;;;;;;49.40;22.48;;;;;;;0.04;100.00;94943.63;1032201;28;20137;-72
2020/12/09 01:27:55;;;;;;;49.08;21.65;;;;;;;0.03;100.00;94934.13;1016167;29;20024;-73
2020/12/09 01:28:26;;;;;;;49.45;21.73;;;;;;;0.11;100.00;94943.91;1028242;28;20494;-72
2020/12/09 01:28:57;;;;;;;50.63;20.65;;;;;;;0.14;100.00;94954.91;1028018;28;20025;-73
2020/12/09 01:29:28;;;;;;;48.38;20.35;;;;;;;0.12;100.00;94951.59;1020329;29;20563;-72
2020/12/09 01:29:59;;;;;;;48.58;20.85;;;;;;;0.07;100.00;94952.94;1028178;28;20023;-73
2020/12/09 01:30:30;;;;;;;48.40;21.75;;;;;;;0.13;100.00;94948.00;1028067;28;20018;-72
2020/12/09 01:31:01;;;;;;;47.92;21.00;;;;;;;0.12;100.00;94949.00;1027937;28;20454;-73
2020/12/09 01:31:32;;;;;;;47.90;20.70;;;;;;;0.11;100.00;94955.16;1024152;28;20026;-73
2020/12/09 01:32:03;;;;;;;49.33;21.70;;;;;;;0.09;100.00;94949.25;1020072;29;20479;-72
2020/12/09 01:32:33;;;;;;;46.78;20.00;;;;;;;0.10;100.00;94956.09;1028059;28;20023;-73
2020/12/09 01:33:05;;;;;;;44.17;20.40;;;;;;;-0.01;100.00;94943.19;1027942;28;20030;-72
2020/12/09 01:33:36;;;;;;;50.17;21.90;;;;;;;0.04;100.00;94933.19;1023959;29;20450;-73
2020/12/09 01:34:07;;;;;;;49.30;21.60;;;;;;;0.10;100.00;94952.69;1032057;28;20025;-73
2020/12/09 01:34:38;;;;;;;48.38;20.98;;;;;;;0.11;100.00;94954.34;1028167;28;20027;-73
2020/12/09 01:35:09;;;;;;;50.75;21.92;;;;;;;0.07;100.00;94956.41;1019930;29;20439;-73
2020/12/09 01:35:40;;;;;;;46.58;20.55;;;;;;;-0.02;100.00;94946.75;1024121;29;20126;-73
2020/12/09 01:36:11;;;;;;;52.08;22.40;;;;;;;0.13;100.00;94960.25;1028025;28;20478;-72
2020/12/09 01:36:41;;;;;;;52.03;21.67;;;;;;;0.11;100.00;94959.56;1024105;29;20030;-74
2020/12/09 01:37:12;;;;;;;50.70;21.33;;;;;;;0.02;100.00;94950.78;1019978;29;20114;-73
2020/12/09 01:37:43;;;;;;;50.22;22.25;;;;;;;0.06;100.00;94961.75;1024051;29;20031;-73
2020/12/09 01:38:14;;;;;;;48.53;21.45;;;;;;;0.09;100.00;94951.88;1028057;28;20034;-73
2020/12/09 01:38:44;;;;;;;47.05;20.50;;;;;;;0.13;100.00;94963.69;1032137;28;20092;-73
2020/12/09 01:39:16;;;;;;;50.50;21.38;;;;;;;0.21;100.00;94970.00;1027937;28;20031;-73
2020/12/09 01:39:47;;;;;;;47.22;21.80;;;;;;;0.14;100.00;94962.72;1032031;28;20026;-73
2020/12/09 01:40:18;;;;;;;53.38;22.98;;;;;;;0.12;100.00;94956.81;1036218;28;20026;-73
2020/12/09 01:40:48;;;;;;;52.97;22.05;;;;;;;0.09;100.00;94967.53;1027941;28;20023;-73
2020/12/09 01:41:20;;;;;;;46.92;20.08;;;;;;;0.17;100.00;94961.63;1020131;29;20107;-73
2020/12/09 01:41:51;;;;;;;49.55;21.38;;;;;;;0.12;100.00;94962.03;1028055;28;20027;-73
2020/12/09 01:42:21;;;;;;;48.50;21.70;;;;;;;0.10;100.00;94960.50;1024165;29;20034;-73
2020/12/09 01:42:52;;;;;;;50.05;22.40;;;;;;;0.06;100.00;94965.19;1019972;29;20019;-73
2020/12/09 01:43:23;;;;;;;47.20;20.55;;;;;;;0.13;100.00;94966.28;1023950;29;20402;-73
2020/12/09 01:43:54;;;;;;;50.50;21.05;;;;;;;0.13;100.00;94961.06;1028089;28;20033;-73
2020/12/09 01:44:26;;;;;;;49.45;21.48;;;;;;;0.16;100.00;94966.00;1028047;28;20386;-73
2020/12/09 01:44:57;;;;;;;53.63;22.95;;;;;;;0.16;100.00;94960.78;1031944;28;20073;-73
2020/12/09 01:45:29;;;;;;;45.72;20.38;;;;;;;0.13;100.00;94958.44;1027892;28;20018;-73
2020/12/09 01:46:00;;;;;;;52.38;21.85;;;;;;;0.10;100.00;94961.31;1016257;29;20452;-73
2020/12/09 01:46:31;;;;;;;50.30;21.52;;;;;;;0.13;100.00;94958.44;1020027;29;20027;-73
2020/12/09 01:47:04;;;;;;;50.90;22.60;;;;;;;0.13;100.00;94953.22;1027973;28;20038;-73
2020/12/09 01:47:35;;;;;;;48.72;21.35;;;;;;;0.13;100.00;94955.84;1028015;28;20545;-73
2020/12/09 01:48:07;;;;;;;48.80;20.13;;;;;;;0.15;100.00;94953.91;1019975;29;20110;-73
2020/12/09 01:48:38;;;;;;;44.83;20.00;;;;;;;0.17;100.00;94949.41;1019998;29;20024;-73
2020/12/09 01:49:08;;;;;;;51.28;20.35;;;;;;;0.17;100.00;94954.63;1028042;28;20433;-73
2020/12/09 01:49:39;;;;;;;53.35;20.60;;;;;;;0.10;100.00;94948.28;1028093;28;20105;-72
2020/12/09 01:50:10;;;;;;;45.03;20.52;;;;;;;0.08;100.00;94947.59;1027992;28;20049;-72
2020/12/09 01:50:41;;;;;;;49.75;21.60;;;;;;;0.08;100.00;94952.00;1021604;29;20567;-73
2020/12/09 01:51:13;;;;;;;48.50;20.55;;;;;;;0.07;100.00;94950.34;1026133;29;20031;-72
2020/12/09 01:51:43;;;;;;;45.92;20.38;;;;;;;0.13;100.00;94952.41;1026037;29;20117;-72
2020/12/09 01:52:14;;;;;;;51.35;21.63;;;;;;;0.09;100.00;94941.44;1022584;29;20027;-72
2020/12/09 01:52:45;;;;;;;51.13;21.98;;;;;;;0.11;100.00;94943.91;1030125;28;20560;-73
2020/12/09 01:53:16;;;;;;;44.38;19.75;;;;;;;0.09;100.00;94945.84;1026166;29;20034;-72
2020/12/09 01:53:47;;;;;;;47.10;19.55;;;;;;;0.02;100.00;94922.06;1026420;29;20079;-72
2020/12/09 01:54:18;;;;;;;49.47;20.92;;;;;;;0.15;100.00;94943.47;1026083;29;20030;-72
2020/12/09 01:54:52;;;;;;;47.95;19.35;;;;;;;0.08;100.00;94934.53;1030003;28;20418;-72
2020/12/09 01:55:24;;;;;;;52.25;22.52;;;;;;;0.15;100.00;94932.22;1022161;29;20019;-71
2020/12/09 01:55:55;;;;;;;45.13;20.33;;;;;;;0.15;100.00;94933.03;1018404;29;20077;-72
2020/12/09 01:56:26;;;;;;;46.95;19.98;;;;;;;0.17;100.00;94935.50;1026283;29;20030;-72
2020/12/09 01:57:09;;;;;;;46.67;20.02;;;;;;;0.18;100.00;94932.75;1022067;29;20028;-73
2020/12/09 01:57:40;;;;;;;47.00;20.65;;;;;;;0.16;100.00;94939.91;1022364;29;20511;-72
2020/12/09 01:58:11;;;;;;;51.20;21.33;;;;;;;0.01;100.00;94917.78;1030224;28;20023;-72
2020/12/09 01:58:42;;;;;;;51.10;21.65;;;;;;;0.15;100.00;94937.44;1025866;29;20114;-73
2020/12/09 01:59:12;;;;;;;50.78;21.27;;;;;;;0.13;100.00;94948.00;1021800;29;20432;-72
2020/12/09 01:59:43;;;;;;;47.28;21.20;;;;;;;0.14;100.00;94947.06;1029991;28;20054;-72
2020/12/09 02:00:14;;;;;;;50.40;21.35;;;;;;;0.14;100.00;94941.84;1021523;29;20059;-72
2020/12/09 02:00:44;;;;;;;50.53;21.63;;;;;;;0.12;100.00;94930.72;1021707;29;20639;-73
2020/12/09 02:01:15;;;;;;;49.78;21.27;;;;;;;0.18;100.00;94939.78;1025677;28;20050;-72
2020/12/09 02:01:46;;;;;;;46.60;20.88;;;;;;;0.16;100.00;94937.31;1024943;29;20403;-72
2020/12/09 02:02:17;;;;;;;46.83;20.55;;;;;;;0.14;100.00;94939.22;1020630;29;20043;-72
2020/12/09 02:02:48;;;;;;;46.03;21.60;;;;;;;0.15;100.00;94946.09;1020224;29;20023;-73
2020/12/09 02:03:18;;;;;;;49.60;21.05;;;;;;;0.12;100.00;94928.09;1024102;29;20027;-72
2020/12/09 02:03:51;;;;;;;47.67;21.42;;;;;;;0.18;100.00;94939.78;1024073;29;20414;-72
2020/12/09 02:04:21;;;;;;;51.85;21.52;;;;;;;0.13;100.00;94941.97;1020045;29;20023;-73
2020/12/09 02:04:53;;;;;;;48.05;21.90;;;;;;;0.17;100.00;94957.25;1019932;29;20466;-72
2020/12/09 02:05:24;;;;;;;55.75;22.25;;;;;;;0.19;100.00;94949.25;1027959;28;20542;-72
2020/12/09 02:05:54;;;;;;;49.28;19.67;;;;;;;0.18;100.00;94948.44;1027900;28;20014;-72
2020/12/09 02:06:25;;;;;;;50.30;21.23;;;;;;;0.14;100.00;94947.06;1020097;29;20028;-72
2020/12/09 02:06:56;;;;;;;50.88;22.48;;;;;;;0.11;100.00;94947.34;1027867;28;20505;-73
2020/12/09 02:07:27;;;;;;;51.95;21.58;;;;;;;0.12;100.00;94946.38;1024066;29;20018;-72
2020/12/09 02:07:58;;;;;;;51.05;20.80;;;;;;;0.11;100.00;94951.75;1024105;29;20015;-72
2020/12/09 02:08:29;;;;;;;52.03;21.67;;;;;;;0.17;100.00;94953.78;1031981;28;20109;-72
2020/12/09 02:08:59;;;;;;;52.40;21.60;;;;;;;0.15;100.00;94948.69;1027864;28;20018;-72
2020/12/09 02:09:30;;;;;;;49.10;21.08;;;;;;;0.13;100.00;94953.22;1020134;29;20546;-72
2020/12/09 02:10:03;;;;;;;53.33;22.25;;;;;;;0.15;100.00;94948.69;1019912;29;20495;-72
2020/12/09 02:10:34;;;;;;;53.30;20.30;;;;;;;0.20;100.00;94952.69;1028097;28;20022;-72
2020/12/09 02:11:05;;;;;;;53.35;23.23;;;;;;;0.10;100.00;94940.44;1019872;29;20024;-73
2020/12/09 02:11:37;;;;;;;50.80;22.33;;;;;;;0.07;100.00;94937.28;1031978;28;20045;-72
2020/12/09 02:12:08;;;;;;;50.85;20.88;;;;;;;0.19;100.00;94951.84;1027984;28;20056;-73
2020/12/09 02:12:40;;;;;;;50.40;22.05;;;;;;;0.13;100.00;94952.41;1023990;29;20021;-73
2020/12/09 02:13:10;;;;;;;55.22;22.77;;;;;;;0.21;100.00;94954.31;1032001;28;20018;-73
2020/12/09 02:13:48;;;;;;;51.40;21.90;;;;;;;0.20;100.00;94948.28;1019935;29;20024;-72
2020/12/09 02:14:19;;;;;;;50.67;20.80;;;;;;;0.21;100.00;94954.31;1023878;28;20027;-73
2020/12/09 02:14:50;;;;;;;52.47;22.30;;;;;;;0.14;100.00;94961.88;1019883;29;20468;-73
2020/12/09 02:15:21;;;;;;;56.22;21.83;;;;;;;0.13;100.00;94953.22;1027920;28;20015;-73
2020/12/09 02:15:52;;;;;;;50.22;22.48;;;;;;;0.10;100.00;94942.25;1023954;29;20011;-73
2020/12/09 02:16:23;;;;;;;47.90;21.23;;;;;;;0.23;100.00;94955.00;1019904;29;20150;-73
2020/12/09 02:16:55;;;;;;;52.78;22.17;;;;;;;-0.01;100.00;94930.16;1027735;28;20399;-72
2020/12/09 02:17:26;;;;;;;54.22;23.00;;;;;;;0.21;100.00;94957.78;1016021;29;20067;-73
2020/12/09 02:17:57;;;;;;;53.25;22.88;;;;;;;0.21;100.00;94955.19;1027976;28;20011;-73
2020/12/09 02:18:29;;;;;;;53.08;21.83;;;;;;;0.16;100.00;94960.78;1035921;28;20494;-73
2020/12/09 02:19:00;;;;;;;56.72;22.85;;;;;;;0.15;100.00;94955.72;1029683;28;20023;-72
2020/12/09 02:19:30;;;;;;;54.72;22.30;;;;;;;0.13;100.00;94953.22;1025974;29;20459;-72
2020/12/09 02:20:02;;;;;;;50.15;21.52;;;;;;;0.16;100.00;94963.41;1032741;28;20127;-72
2020/12/09 02:20:33;;;;;;;52.17;21.50;;;;;;;0.19;100.00;94964.91;1023938;29;20085;-73
2020/12/09 02:21:04;;;;;;;47.97;20.30;;;;;;;0.11;100.00;94949.94;1023704;29;20522;-72
2020/12/09 02:21:35;;;;;;;53.13;22.35;;;;;;;0.13;100.00;94971.50;1020295;29;20102;-73
2020/12/09 02:22:13;;;;;;;50.50;21.38;;;;;;;0.17;100.00;94965.06;1024019;29;20022;-72
2020/12/09 02:22:53;;;;;;;50.15;21.80;;;;;;;0.17;100.00;94972.91;1023829;28;20039;-72
2020/12/09 02:23:23;;;;;;;;;;;;;;;0.20;100.00;94976.19;1016329;29;20023;-73
2020/12/09 02:23:54;;;;;;;53.30;20.88;;;;;;;0.18;100.00;94976.31;1027688;28;20008;-73
2020/12/09 02:24:25;;;;;;;52.75;21.00;;;;;;;0.01;100.00;94964.75;1023923;29;20423;-73
2020/12/09 02:24:56;;;;;;;56.42;23.38;;;;;;;0.16;100.00;94975.66;1015949;29;20147;-72